Time;durP1;ratioP1;P1;durP2;ratioP2;P2;SDS_P1;SDS_P2;PMS_P1;PMS_P2;Temp;Humidity;BMP_temperature;BMP_pressure;BME280_temperature;BME280_humidity;BME280_pressure;Samples;Min_cycle;Max_cycle;Signal;HPM_P1;HPM_P2
2021/06/07 00:01:06;;;;;;;1.33;0.88;;;17.10;99.90;;;;;;5051851;28;20184;-78
2021/06/07 00:03:32;;;;;;;2.72;1.20;;;17.20;99.90;;;;;;5052020;28;20171;-79
2021/06/07 00:06:19;;;;;;;4.13;1.10;;;17.20;99.90;;;;;;5034580;28;20190;-79
2021/06/07 00:08:44;;;;;;;2.17;1.40;;;17.30;99.90;;;;;;5062361;28;20175;-79
2021/06/07 00:11:13;;;;;;;4.35;1.30;;;17.30;99.90;;;;;;5043876;28;20198;-78
2021/06/07 00:13:40;;;;;;;1.17;1.02;;;17.40;99.90;;;;;;5061757;28;20178;-78
2021/06/07 00:16:07;;;;;;;3.70;1.10;;;17.20;99.90;;;;;;5055371;28;20189;-79
2021/06/07 00:18:33;;;;;;;1.40;1.20;;;17.30;99.90;;;;;;5037944;28;20178;-79
2021/06/07 00:21:06;;;;;;;1.58;1.02;;;17.20;99.90;;;;;;5065361;28;20187;-79
2021/06/07 00:23:31;;;;;;;1.02;1.02;;;17.10;99.90;;;;;;5046765;28;20635;-80
2021/06/07 00:25:57;;;;;;;1.63;1.20;;;17.00;99.90;;;;;;5069975;28;20171;-79
2021/06/07 00:28:23;;;;;;;3.22;1.05;;;17.10;99.90;;;;;;5068190;28;20693;-79
2021/06/07 00:30:49;;;;;;;3.25;1.40;;;17.00;99.90;;;;;;5071154;28;20250;-79
2021/06/07 00:33:15;;;;;;;4.15;1.58;;;17.00;99.90;;;;;;5053452;28;20189;-79
2021/06/07 00:35:41;;;;;;;4.15;1.42;;;16.90;99.90;;;;;;5069230;28;20202;-78
2021/06/07 00:38:07;;;;;;;2.42;1.33;;;16.80;99.90;;;;;;5043351;28;20206;-81
2021/06/07 00:40:33;;;;;;;1.67;1.48;;;16.90;99.90;;;;;;5059935;28;20190;-81
2021/06/07 00:42:59;;;;;;;3.42;1.10;;;16.90;99.90;;;;;;5051629;28;20635;-80
2021/06/07 00:45:31;;;;;;;1.10;0.93;;;16.80;99.90;;;;;;5061321;28;20159;-80
2021/06/07 00:47:59;;;;;;;1.27;1.17;;;16.70;99.90;;;;;;5029428;28;20265;-80
2021/06/07 00:50:45;;;;;;;7.18;1.30;;;16.60;99.90;;;;;;5061631;28;20187;-79
2021/06/07 00:53:13;;;;;;;1.20;1.05;;;16.60;99.90;;;;;;5063043;28;20172;-77
2021/06/07 00:56:00;;;;;;;2.40;1.20;;;16.60;99.90;;;;;;5061324;28;20155;-79
2021/06/07 00:58:30;;;;;;;1.20;1.10;;;16.40;99.90;;;;;;5056355;28;20183;-78
2021/06/07 01:00:56;;;;;;;1.35;1.25;;;16.40;99.90;;;;;;5062302;28;20241;-79
2021/06/07 01:03:29;;;;;;;1.08;0.98;;;16.50;99.90;;;;;;5062705;28;20168;-79
2021/06/07 01:05:56;;;;;;;2.72;1.23;;;16.30;99.90;;;;;;5034490;28;20178;-80
2021/06/07 01:08:23;;;;;;;2.05;1.45;;;16.30;99.90;;;;;;5063396;28;20171;-79
2021/06/07 01:10:50;;;;;;;5.90;1.48;;;16.40;99.90;;;;;;5062438;28;20263;-79
2021/06/07 01:13:16;;;;;;;5.82;1.20;;;16.60;99.90;;;;;;5062556;28;20181;-79
2021/06/07 01:15:45;;;;;;;1.52;1.27;;;16.50;99.90;;;;;;5060867;28;20624;-79
2021/06/07 01:18:12;;;;;;;1.45;1.23;;;16.60;99.90;;;;;;5041290;28;20211;-79
2021/06/07 01:20:38;;;;;;;2.78;1.30;;;16.60;99.90;;;;;;5058853;28;20176;-80
2021/06/07 01:23:04;;;;;;;4.00;1.15;;;16.60;99.90;;;;;;5056791;28;20175;-79
2021/06/07 01:25:34;;;;;;;3.63;1.42;;;16.40;99.90;;;;;;5056319;28;20253;-79
2021/06/07 01:28:00;;;;;;;1.17;1.02;;;16.50;99.90;;;;;;5057148;28;20176;-79
2021/06/07 01:30:30;;;;;;;2.47;1.55;;;16.40;99.90;;;;;;5038745;28;20302;-79
2021/06/07 01:32:57;;;;;;;1.65;1.20;;;16.50;99.90;;;;;;5055897;28;20262;-79
2021/06/07 01:35:24;;;;;;;1.40;1.30;;;16.50;99.90;;;;;;5056910;28;20193;-79
2021/06/07 01:37:52;;;;;;;2.83;1.30;;;16.40;99.90;;;;;;5059217;28;20540;-79
2021/06/07 01:40:23;;;;;;;1.92;1.10;;;16.30;99.90;;;;;;5038535;28;20724;-79
2021/06/07 01:42:50;;;;;;;4.40;1.40;;;16.20;99.90;;;;;;5057529;28;20163;-79
2021/06/07 01:45:19;;;;;;;1.40;1.30;;;16.10;99.90;;;;;;5058071;28;20167;-79
2021/06/07 01:47:44;;;;;;;3.45;1.77;;;16.20;99.90;;;;;;5061050;28;20159;-79
2021/06/07 01:50:11;;;;;;;2.03;1.25;;;16.40;99.90;;;;;;5058480;28;20176;-80
2021/06/07 01:52:43;;;;;;;1.17;1.10;;;16.40;99.90;;;;;;5039233;28;20175;-81
2021/06/07 01:55:33;;;;;;;2.88;1.30;;;16.40;99.90;;;;;;5058499;28;20159;-80
2021/06/07 01:58:00;;;;;;;2.42;1.50;;;16.30;99.90;;;;;;5039195;28;20203;-79
2021/06/07 02:00:42;;;;;;;1.95;1.63;;;15.90;99.90;;;;;;5055555;28;20191;-78
2021/06/07 02:03:09;;;;;;;1.67;1.30;;;15.80;99.90;;;;;;5057115;28;20221;-79
2021/06/07 02:05:40;;;;;;;1.92;1.17;;;15.80;99.90;;;;;;5056242;28;20616;-79
2021/06/07 02:08:09;;;;;;;1.45;1.35;;;15.70;99.90;;;;;;5056934;28;20167;-79
2021/06/07 02:10:41;;;;;;;2.05;1.63;;;15.90;99.90;;;;;;5057320;28;20270;-80
2021/06/07 02:13:08;;;;;;;2.92;1.45;;;16.00;99.90;;;;;;5053698;28;20159;-79
2021/06/07 02:15:34;;;;;;;1.35;1.25;;;16.20;99.90;;;;;;5053533;28;20174;-79
2021/06/07 02:18:05;;;;;;;2.75;1.40;;;16.10;99.90;;;;;;5053393;28;20207;-79
2021/06/07 02:20:31;;;;;;;2.53;1.42;;;16.10;99.90;;;;;;5053005;28;20186;-79
2021/06/07 02:22:57;;;;;;;4.80;1.83;;;15.90;99.90;;;;;;5053411;28;20754;-79
2021/06/07 02:25:23;;;;;;;1.80;1.70;;;15.80;99.90;;;;;;5053141;28;20171;-79
2021/06/07 02:27:50;;;;;;;3.30;1.80;;;16.00;99.90;;;;;;5053117;28;20159;-79
2021/06/07 02:30:22;;;;;;;2.72;1.42;;;16.00;99.90;;;;;;5053096;28;20187;-79
2021/06/07 02:32:49;;;;;;;3.58;1.70;;;15.70;99.90;;;;;;5035144;28;20202;-79
2021/06/07 02:35:17;;;;;;;1.67;1.52;;;15.50;99.90;;;;;;5052561;28;20210;-80
2021/06/07 02:37:45;;;;;;;1.67;1.58;;;15.40;99.90;;;;;;5053299;28;20199;-78
2021/06/07 02:40:12;;;;;;;2.78;1.63;;;15.40;99.90;;;;;;5034992;28;20530;-78
2021/06/07 02:42:40;;;;;;;2.75;2.20;;;15.50;99.90;;;;;;5053788;28;20170;-80
2021/06/07 02:45:09;;;;;;;5.40;1.70;;;15.30;99.90;;;;;;5035871;28;20167;-79
2021/06/07 02:47:36;;;;;;;10.60;2.22;;;15.40;99.90;;;;;;5035505;28;20182;-79
2021/06/07 02:50:03;;;;;;;5.38;1.73;;;15.20;99.90;;;;;;5052675;28;20193;-79
2021/06/07 02:52:28;;;;;;;5.18;1.85;;;15.30;99.90;;;;;;5052693;28;20163;-79
2021/06/07 02:54:54;;;;;;;5.10;2.20;;;15.50;99.90;;;;;;5052682;28;20711;-79
2021/06/07 02:57:19;;;;;;;5.40;2.40;;;15.50;99.90;;;;;;5018533;28;20206;-79
2021/06/07 02:59:45;;;;;;;2.65;1.90;;;15.40;99.90;;;;;;5052952;28;20183;-79
2021/06/07 03:02:11;;;;;;;4.72;2.03;;;15.30;99.90;;;;;;5052699;28;20182;-80
2021/06/07 03:04:36;;;;;;;6.40;2.35;;;15.20;99.90;;;;;;5052647;28;20167;-80
2021/06/07 03:07:02;;;;;;;3.63;2.22;;;15.30;99.90;;;;;;5052614;28;20186;-79
2021/06/07 03:09:28;;;;;;;2.42;2.22;;;15.40;99.90;;;;;;5052753;28;20191;-79
2021/06/07 03:11:53;;;;;;;2.67;2.20;;;15.30;99.90;;;;;;5052562;28;20159;-79
2021/06/07 03:14:19;;;;;;;7.53;2.00;;;15.40;99.90;;;;;;5034670;28;20206;-79
2021/06/07 03:16:45;;;;;;;4.32;2.42;;;15.50;99.90;;;;;;5051947;28;20278;-79
2021/06/07 03:19:10;;;;;;;3.33;2.13;;;15.70;99.90;;;;;;5052686;28;20194;-79
2021/06/07 03:21:36;;;;;;;3.45;2.28;;;15.70;99.90;;;;;;5052990;28;20174;-79
2021/06/07 03:24:02;;;;;;;2.92;2.10;;;15.50;99.90;;;;;;5052578;28;20457;-79
2021/06/07 03:26:28;;;;;;;4.30;2.38;;;15.40;99.90;;;;;;5052542;28;20245;-78
2021/06/07 03:28:54;;;;;;;5.03;2.35;;;15.50;99.90;;;;;;5053339;28;20613;-80
2021/06/07 03:31:19;;;;;;;2.88;2.35;;;15.30;99.90;;;;;;5065808;28;20187;-78
2021/06/07 03:33:45;;;;;;;4.40;2.63;;;15.10;99.90;;;;;;5073650;28;20179;-78
2021/06/07 03:36:11;;;;;;;2.88;2.28;;;15.20;99.90;;;;;;5074333;28;20163;-79
2021/06/07 03:38:37;;;;;;;7.68;3.33;;;15.30;99.90;;;;;;5059676;28;20190;-79
2021/06/07 03:41:03;;;;;;;4.43;2.35;;;15.40;99.90;;;;;;5053406;28;20185;-80
2021/06/07 03:43:35;;;;;;;2.42;2.25;;;15.40;99.90;;;;;;5053536;28;20178;-80
2021/06/07 03:46:01;;;;;;;14.57;3.30;;;15.40;99.90;;;;;;5054302;28;20160;-79
2021/06/07 03:48:28;;;;;;;4.65;2.65;;;15.30;99.90;;;;;;5059315;28;20163;-79
2021/06/07 03:50:54;;;;;;;5.03;2.58;;;15.40;99.90;;;;;;5060526;28;20183;-81
2021/06/07 03:53:20;;;;;;;2.60;2.40;;;15.50;99.90;;;;;;5059158;28;20305;-80
2021/06/07 03:55:45;;;;;;;8.25;2.83;;;15.40;99.90;;;;;;5058535;28;20212;-78
2021/06/07 03:58:12;;;;;;;2.85;2.28;;;15.30;99.90;;;;;;5058356;28;20714;-79
2021/06/07 04:00:39;;;;;;;4.07;3.17;;;15.30;99.90;;;;;;5061179;28;20211;-80
2021/06/07 04:03:06;;;;;;;3.40;2.97;;;15.50;99.90;;;;;;5056876;28;20171;-80
2021/06/07 04:05:34;;;;;;;5.82;2.63;;;15.70;99.90;;;;;;5057787;28;20170;-80
2021/06/07 04:08:00;;;;;;;3.63;2.63;;;15.90;99.90;;;;;;5058319;28;20175;-80
2021/06/07 04:10:27;;;;;;;3.85;3.03;;;16.10;99.90;;;;;;5057947;28;20179;-80
2021/06/07 04:12:55;;;;;;;3.03;2.80;;;16.20;99.90;;;;;;5056897;28;20159;-79
2021/06/07 04:15:23;;;;;;;2.75;2.08;;;16.50;99.90;;;;;;5039249;28;20175;-79
2021/06/07 04:17:50;;;;;;;3.85;2.35;;;16.80;99.90;;;;;;5038179;28;20217;-79
2021/06/07 04:20:21;;;;;;;3.17;2.58;;;17.00;99.90;;;;;;5056115;28;20270;-79
2021/06/07 04:22:47;;;;;;;4.03;2.55;;;17.00;99.90;;;;;;5038042;28;20205;-81
2021/06/07 04:25:17;;;;;;;10.70;2.85;;;16.90;99.90;;;;;;5048162;28;20174;-80
2021/06/07 04:27:43;;;;;;;5.80;3.10;;;16.80;99.90;;;;;;5039920;28;20175;-78
2021/06/07 04:30:12;;;;;;;6.35;3.00;;;16.60;99.90;;;;;;5055635;28;20240;-78
2021/06/07 04:32:38;;;;;;;5.30;2.95;;;16.70;99.90;;;;;;5055588;28;20591;-78
2021/06/07 04:35:07;;;;;;;4.15;2.75;;;16.40;99.90;;;;;;5037901;28;20171;-78
2021/06/07 04:37:39;;;;;;;6.70;3.53;;;16.00;99.90;;;;;;5055670;28;20210;-79
2021/06/07 04:40:05;;;;;;;3.28;2.97;;;15.90;99.90;;;;;;5055682;28;20190;-77
2021/06/07 04:42:30;;;;;;;7.07;3.63;;;16.00;99.90;;;;;;5055250;28;20174;-79
2021/06/07 04:44:56;;;;;;;6.18;3.92;;;15.90;99.90;;;;;;5055117;28;20168;-79
2021/06/07 04:47:22;;;;;;;5.63;3.40;;;15.90;99.90;;;;;;5055329;28;20171;-79
2021/06/07 04:49:47;;;;;;;7.32;3.78;;;15.90;99.90;;;;;;5055663;28;20643;-79
2021/06/07 04:52:13;;;;;;;4.30;3.72;;;15.90;99.90;;;;;;5037614;28;20175;-79
2021/06/07 04:54:39;;;;;;;5.53;3.60;;;16.10;99.90;;;;;;5037465;28;20263;-78
2021/06/07 04:57:05;;;;;;;7.18;3.30;;;16.20;99.90;;;;;;5055199;28;20206;-79
2021/06/07 04:59:31;;;;;;;5.50;3.63;;;16.20;99.90;;;;;;5054891;28;20179;-80
2021/06/07 05:01:56;;;;;;;5.15;3.15;;;16.20;99.90;;;;;;5055009;28;20167;-79
2021/06/07 05:04:22;;;;;;;7.90;4.38;;;16.00;99.90;;;;;;5055134;28;20172;-79
2021/06/07 05:06:47;;;;;;;7.00;3.65;;;16.00;99.90;;;;;;5037263;28;20623;-80
2021/06/07 05:09:13;;;;;;;3.58;3.28;;;16.00;99.90;;;;;;5036771;28;20174;-79
2021/06/07 05:11:41;;;;;;;8.77;4.30;;;16.20;99.90;;;;;;5054906;28;20260;-80
2021/06/07 05:14:07;;;;;;;4.63;3.80;;;16.10;99.90;;;;;;5037452;28;20538;-79
2021/06/07 05:16:32;;;;;;;5.70;3.33;;;15.90;99.90;;;;;;5036588;28;20191;-79
2021/06/07 05:18:58;;;;;;;12.38;3.70;;;16.20;99.90;;;;;;5054679;28;20179;-79
2021/06/07 05:21:24;;;;;;;3.80;3.50;;;16.30;99.90;;;;;;5054382;28;20659;-80
2021/06/07 05:23:49;;;;;;;4.15;3.78;;;16.50;99.90;;;;;;5054624;28;20198;-82
2021/06/07 05:26:15;;;;;;;10.52;4.18;;;16.50;99.90;;;;;;5054237;28;20258;-80
2021/06/07 05:28:41;;;;;;;13.55;3.88;;;16.10;99.90;;;;;;5054534;28;20175;-80
2021/06/07 05:31:07;;;;;;;12.25;4.30;;;16.30;99.90;;;;;;5053929;28;20677;-80
2021/06/07 05:33:32;;;;;;;4.30;3.65;;;16.60;99.90;;;;;;5054299;28;20167;-80
2021/06/07 05:35:58;;;;;;;5.13;3.92;;;16.70;99.90;;;;;;5054528;28;20173;-79
2021/06/07 05:38:24;;;;;;;5.88;4.90;;;16.70;99.90;;;;;;5054255;28;20210;-80
2021/06/07 05:40:53;;;;;;;4.30;3.90;;;16.80;99.90;;;;;;5035888;28;20187;-80
2021/06/07 05:43:22;;;;;;;4.82;4.30;;;16.90;99.90;;;;;;5054008;28;20164;-81
2021/06/07 05:45:50;;;;;;;4.28;3.97;;;17.20;99.90;;;;;;5036194;28;20167;-78
2021/06/07 05:48:16;;;;;;;6.90;4.82;;;17.10;99.90;;;;;;5054193;28;20171;-78
2021/06/07 05:50:42;;;;;;;5.80;4.20;;;16.80;99.90;;;;;;5053650;28;20241;-77
2021/06/07 05:53:09;;;;;;;4.13;3.80;;;16.80;99.90;;;;;;5053847;28;20163;-78
2021/06/07 05:55:39;;;;;;;4.63;4.22;;;16.60;99.90;;;;;;5053778;28;20163;-78
2021/06/07 05:58:11;;;;;;;5.10;4.70;;;16.60;99.90;;;;;;5053275;28;20207;-81
2021/06/07 06:00:40;;;;;;;12.27;5.15;;;16.70;99.90;;;;;;5054727;28;20203;-81
2021/06/07 06:03:06;;;;;;;6.38;5.15;;;17.00;99.90;;;;;;5035505;28;20182;-81
2021/06/07 06:05:33;;;;;;;7.05;5.10;;;16.90;99.90;;;;;;5036790;28;20171;-80
2021/06/07 06:07:58;;;;;;;7.03;5.13;;;17.00;99.90;;;;;;5036474;28;20250;-83
2021/06/07 06:10:24;;;;;;;7.63;5.53;;;17.10;99.90;;;;;;5036732;28;20179;-84
2021/06/07 06:12:50;;;;;;;6.65;5.80;;;17.00;99.90;;;;;;5060127;28;20242;-84
2021/06/07 06:15:20;;;;;;;16.42;6.72;;;17.00;99.90;;;;;;5076589;28;20254;-85
2021/06/07 06:17:46;;;;;;;5.38;4.78;;;17.10;99.90;;;;;;5057825;28;20223;-84
2021/06/07 06:20:12;;;;;;;5.90;5.15;;;17.10;99.90;;;;;;5076970;28;20179;-83
2021/06/07 06:22:38;;;;;;;7.57;5.75;;;17.10;99.90;;;;;;5040293;28;20190;-79
2021/06/07 06:25:07;;;;;;;6.35;5.75;;;17.10;99.90;;;;;;5036414;28;20585;-80
2021/06/07 06:27:33;;;;;;;11.40;5.55;;;17.00;99.90;;;;;;5054896;28;20176;-80
2021/06/07 06:29:59;;;;;;;6.50;5.65;;;16.90;99.90;;;;;;5054177;28;20206;-80
2021/06/07 06:32:25;;;;;;;8.23;5.60;;;17.00;99.90;;;;;;5054785;28;20520;-80
2021/06/07 06:34:51;;;;;;;7.28;5.40;;;17.20;99.90;;;;;;5053820;28;20581;-81
2021/06/07 06:37:16;;;;;;;6.82;6.05;;;17.30;99.90;;;;;;5035755;28;20207;-81
2021/06/07 06:39:42;;;;;;;7.15;6.50;;;17.40;99.90;;;;;;5053281;28;20278;-80
2021/06/07 06:42:09;;;;;;;12.30;5.78;;;17.30;99.90;;;;;;5053621;28;20173;-81
2021/06/07 06:44:35;;;;;;;9.38;5.25;;;17.30;99.90;;;;;;5035663;28;20191;-82
2021/06/07 06:47:01;;;;;;;11.40;5.50;;;17.30;99.90;;;;;;5052469;28;20246;-80
2021/06/07 06:49:27;;;;;;;8.20;5.25;;;17.50;99.90;;;;;;5053275;28;20655;-81
2021/06/07 06:51:54;;;;;;;17.98;5.63;;;17.90;99.90;;;;;;5053697;28;20213;-80
2021/06/07 06:54:20;;;;;;;6.20;5.38;;;18.50;99.90;;;;;;5035044;28;20787;-80
2021/06/07 06:56:46;;;;;;;5.82;5.20;;;19.00;99.90;;;;;;5036271;28;20195;-80
2021/06/07 06:59:11;;;;;;;4.93;4.53;;;19.70;99.90;;;;;;5035207;28;20240;-80
2021/06/07 07:01:38;;;;;;;5.82;4.40;;;20.20;99.90;;;;;;5054265;28;20322;-79
2021/06/07 07:04:04;;;;;;;4.90;4.55;;;20.90;99.90;;;;;;5052978;28;20190;-80
2021/06/07 07:06:29;;;;;;;5.53;3.88;;;21.40;99.90;;;;;;5052583;28;20543;-78
2021/06/07 07:08:55;;;;;;;4.22;3.90;;;21.80;99.90;;;;;;5052732;28;20167;-78
2021/06/07 07:11:21;;;;;;;11.02;4.15;;;22.30;99.90;;;;;;5051753;28;20179;-78
2021/06/07 07:13:47;;;;;;;9.73;3.65;;;23.00;99.90;;;;;;5034090;28;20508;-77
2021/06/07 07:16:13;;;;;;;7.43;3.88;;;23.30;99.90;;;;;;5052200;28;20253;-77
2021/06/07 07:18:38;;;;;;;4.57;3.38;;;23.20;99.90;;;;;;5051789;28;20175;-77
2021/06/07 07:21:04;;;;;;;4.75;3.25;;;23.10;99.90;;;;;;5053576;28;20761;-77
2021/06/07 07:23:30;;;;;;;6.85;3.72;;;22.90;99.90;;;;;;5058896;28;20163;-77
2021/06/07 07:25:57;;;;;;;4.25;3.85;;;23.80;99.90;;;;;;5057548;28;20199;-77
2021/06/07 07:28:22;;;;;;;5.80;3.70;;;23.30;99.90;;;;;;5043433;28;20170;-77
2021/06/07 07:30:48;;;;;;;7.28;3.53;;;22.90;99.90;;;;;;5056291;28;20183;-79
2021/06/07 07:33:14;;;;;;;7.03;4.00;;;23.20;99.90;;;;;;5067084;28;20185;-76
2021/06/07 07:35:41;;;;;;;6.05;3.25;;;24.40;99.90;;;;;;5069945;28;20200;-77
2021/06/07 07:38:07;;;;;;;9.23;4.10;;;24.90;99.90;;;;;;5056334;28;20597;-77
2021/06/07 07:40:33;;;;;;;3.20;2.90;;;25.20;99.90;;;;;;5056335;28;20191;-78
2021/06/07 07:42:59;;;;;;;3.38;3.08;;;25.10;99.90;;;;;;5056727;28;20198;-77
2021/06/07 07:45:28;;;;;;;6.05;3.08;;;25.90;99.90;;;;;;5064989;28;20201;-78
2021/06/07 07:47:56;;;;;;;4.47;3.22;;;25.40;99.90;;;;;;5056504;28;20737;-78
2021/06/07 07:50:22;;;;;;;2.97;2.78;;;24.50;99.90;;;;;;5063548;28;20813;-78
2021/06/07 07:52:48;;;;;;;3.83;3.13;;;24.40;99.90;;;;;;5077037;28;20170;-77
2021/06/07 07:55:18;;;;;;;9.05;3.30;;;23.60;99.90;;;;;;5059083;28;20269;-78
2021/06/07 07:57:44;;;;;;;14.07;5.25;;;23.20;99.90;;;;;;5075917;28;20210;-78
2021/06/07 08:00:12;;;;;;;3.72;3.42;;;23.00;99.90;;;;;;5077164;28;20535;-78
2021/06/07 08:02:38;;;;;;;5.78;3.75;;;22.50;99.90;;;;;;5077387;28;20672;-77
2021/06/07 08:05:06;;;;;;;8.70;4.40;;;22.20;99.90;;;;;;5059800;28;20692;-76
2021/06/07 08:07:31;;;;;;;4.82;4.32;;;21.50;99.90;;;;;;5077241;28;20208;-78
2021/06/07 08:09:57;;;;;;;7.18;3.80;;;21.20;99.90;;;;;;5078046;28;20194;-81
2021/06/07 08:12:23;;;;;;;4.43;4.00;;;20.90;99.90;;;;;;5076781;28;20630;-79
2021/06/07 08:14:49;;;;;;;4.57;4.18;;;20.90;99.90;;;;;;5076805;28;20177;-79
2021/06/07 08:17:16;;;;;;;6.30;3.88;;;21.00;99.90;;;;;;5076753;28;20259;-78
2021/06/07 08:19:42;;;;;;;6.55;2.97;;;21.10;99.90;;;;;;5078227;28;20189;-79
2021/06/07 08:22:08;;;;;;;9.43;2.75;;;21.10;99.90;;;;;;5076475;28;20167;-79
2021/06/07 08:24:34;;;;;;;4.10;3.25;;;21.00;99.90;;;;;;5076534;28;20174;-78
2021/06/07 08:27:00;;;;;;;4.22;3.78;;;21.10;99.90;;;;;;5056980;28;20182;-77
2021/06/07 08:29:26;;;;;;;3.55;2.60;;;21.10;99.90;;;;;;5056405;28;20222;-76
2021/06/07 08:31:52;;;;;;;3.75;3.15;;;21.10;99.90;;;;;;5056279;28;20273;-81
2021/06/07 08:34:17;;;;;;;4.07;2.38;;;21.00;99.90;;;;;;5054024;28;20605;-78
2021/06/07 08:36:44;;;;;;;3.60;3.03;;;21.20;99.90;;;;;;5053375;28;20629;-77
2021/06/07 08:39:10;;;;;;;3.22;2.78;;;21.00;99.90;;;;;;5053731;28;20182;-78
2021/06/07 08:41:37;;;;;;;2.30;2.10;;;21.10;99.90;;;;;;5053836;28;20627;-77
2021/06/07 08:44:03;;;;;;;7.53;2.38;;;21.00;99.90;;;;;;5054738;28;20183;-76
2021/06/07 08:46:29;;;;;;;17.75;4.18;;;20.90;99.90;;;;;;5052877;28;20257;-76
2021/06/07 08:48:55;;;;;;;3.05;2.63;;;20.80;99.90;;;;;;5053437;28;20253;-82
2021/06/07 08:51:20;;;;;;;4.70;2.75;;;20.70;99.90;;;;;;5053815;28;20198;-77
2021/06/07 08:53:47;;;;;;;4.05;2.90;;;20.70;99.90;;;;;;5054188;28;20179;-77
2021/06/07 08:56:15;;;;;;;4.03;2.88;;;20.90;99.90;;;;;;5066810;28;20631;-78
2021/06/07 08:58:41;;;;;;;3.83;3.28;;;21.20;99.90;;;;;;5075997;28;20213;-78
2021/06/07 09:01:08;;;;;;;3.45;2.67;;;21.50;99.90;;;;;;5096935;28;20170;-76
2021/06/07 09:03:34;;;;;;;8.52;3.38;;;21.70;99.90;;;;;;5087532;28;20199;-78
2021/06/07 09:06:02;;;;;;;4.63;2.55;;;21.70;99.90;;;;;;5085878;28;20179;-78
2021/06/07 09:08:34;;;;;;;4.75;3.95;;;21.80;99.90;;;;;;5074478;28;20186;-78
2021/06/07 09:11:13;;;;;;;4.68;3.13;;;21.60;99.90;;;;;;5073723;28;20201;-77
2021/06/07 09:13:40;;;;;;;5.38;3.00;;;21.50;99.90;;;;;;5073801;28;20158;-77
2021/06/07 09:16:06;;;;;;;3.60;3.15;;;21.60;99.90;;;;;;5073271;28;20682;-78
2021/06/07 09:18:39;;;;;;;8.75;3.40;;;21.70;99.90;;;;;;5078837;28;20231;-78
2021/06/07 09:21:13;;;;;;;4.28;2.95;;;21.70;99.90;;;;;;5074537;28;20186;-78
2021/06/07 09:23:44;;;;;;;3.67;3.03;;;21.60;99.90;;;;;;5073699;28;20650;-78
2021/06/07 09:26:32;;;;;;;3.65;2.78;;;21.60;99.90;;;;;;5072759;28;20171;-78
2021/06/07 09:29:09;;;;;;;3.67;3.10;;;21.50;99.90;;;;;;5073492;28;20201;-77
2021/06/07 09:31:35;;;;;;;5.68;4.10;;;21.60;99.90;;;;;;5072569;28;20257;-78
2021/06/07 09:34:06;;;;;;;3.75;3.13;;;21.50;99.90;;;;;;5073805;28;20285;-78
2021/06/07 09:36:50;;;;;;;4.95;3.40;;;21.60;99.90;;;;;;5073037;28;20182;-77
2021/06/07 09:39:23;;;;;;;5.95;3.92;;;21.90;99.90;;;;;;5073587;28;20197;-78
2021/06/07 09:41:53;;;;;;;3.67;2.80;;;21.70;99.90;;;;;;5055559;28;20521;-78
2021/06/07 09:44:25;;;;;;;3.25;2.95;;;21.70;99.90;;;;;;5073169;28;20200;-78
2021/06/07 09:46:52;;;;;;;12.13;3.03;;;21.80;99.90;;;;;;5072968;28;20687;-78
2021/06/07 09:49:20;;;;;;;4.80;3.53;;;21.90;99.90;;;;;;5073521;28;20201;-78
2021/06/07 09:51:58;;;;;;;3.25;2.80;;;21.80;99.90;;;;;;5072563;28;20171;-78
2021/06/07 09:54:26;;;;;;;2.72;2.10;;;21.70;99.90;;;;;;5076816;28;20174;-77
2021/06/07 09:56:57;;;;;;;5.03;2.72;;;21.90;99.90;;;;;;5071867;28;20194;-77
2021/06/07 09:59:43;;;;;;;3.90;2.47;;;22.10;99.90;;;;;;5072986;28;20186;-78
2021/06/07 10:02:20;;;;;;;3.00;2.65;;;22.10;99.90;;;;;;5072300;28;20253;-78
2021/06/07 10:04:50;;;;;;;3.50;2.38;;;22.20;99.90;;;;;;5072638;28;20170;-79
2021/06/07 10:07:17;;;;;;;2.80;2.05;;;22.30;99.90;;;;;;5072665;28;20311;-77
2021/06/07 10:10:11;;;;;;;3.90;3.03;;;22.10;99.90;;;;;;5073141;28;20205;-79
2021/06/07 10:12:41;;;;;;;4.38;2.90;;;22.30;99.90;;;;;;5070962;28;20159;-78
2021/06/07 10:15:14;;;;;;;5.97;1.77;;;22.50;99.90;;;;;;5071797;28;20674;-80
2021/06/07 10:17:40;;;;;;;2.58;1.92;;;22.30;99.90;;;;;;5072072;28;20198;-78
2021/06/07 10:22:38;;;;;;;2.05;1.48;;;22.10;99.90;;;;;;5072327;28;20193;-82
2021/06/07 10:25:09;;;;;;;2.55;1.90;;;21.90;99.90;;;;;;5072495;28;20169;-81
2021/06/07 10:27:36;;;;;;;1.83;1.73;;;22.00;99.90;;;;;;5072376;28;20178;-81
2021/06/07 10:30:03;;;;;;;6.18;2.28;;;22.30;99.90;;;;;;5054213;28;20607;-81
2021/06/07 10:32:29;;;;;;;8.07;1.60;;;22.40;99.90;;;;;;5053855;28;20187;-83
2021/06/07 10:35:04;;;;;;;1.98;1.70;;;22.30;99.90;;;;;;5054240;28;20170;-83
2021/06/07 10:37:32;;;;;;;4.45;1.60;;;22.40;99.90;;;;;;5072601;28;20207;-83
2021/06/07 10:40:16;;;;;;;3.45;1.88;;;22.30;99.90;;;;;;5054818;28;20182;-81
2021/06/07 10:43:00;;;;;;;3.05;1.13;;;22.30;99.90;;;;;;5071641;28;20249;-81
2021/06/07 10:45:28;;;;;;;2.15;1.50;;;22.20;99.90;;;;;;5054929;28;20176;-81
2021/06/07 10:47:54;;;;;;;3.03;1.70;;;22.20;99.90;;;;;;5052233;28;20246;-84
2021/06/07 10:50:27;;;;;;;4.68;1.77;;;22.20;99.90;;;;;;5034437;28;20191;-80
2021/06/07 10:52:57;;;;;;;5.45;1.60;;;22.20;99.90;;;;;;5052194;28;20167;-81
2021/06/07 10:55:42;;;;;;;4.13;1.45;;;22.30;99.90;;;;;;5033649;28;20171;-80
2021/06/07 10:58:12;;;;;;;3.63;2.03;;;22.40;99.90;;;;;;5051886;28;20318;-80
2021/06/07 11:00:42;;;;;;;2.45;2.25;;;22.60;99.90;;;;;;5034066;28;20218;-80
2021/06/07 11:03:19;;;;;;;1.65;1.55;;;22.50;99.90;;;;;;5034785;28;20273;-80
2021/06/07 11:05:47;;;;;;;1.60;1.50;;;22.50;99.90;;;;;;5052791;28;20224;-84
2021/06/07 11:08:19;;;;;;;3.35;1.92;;;22.40;99.90;;;;;;5035288;28;20217;-81
2021/06/07 11:11:04;;;;;;;1.75;1.50;;;22.20;99.90;;;;;;5034507;28;20638;-82
2021/06/07 11:13:44;;;;;;;4.88;2.10;;;22.30;99.90;;;;;;5035061;28;20166;-83
2021/06/07 11:16:30;;;;;;;2.25;2.05;;;22.50;99.90;;;;;;5034327;28;20205;-80
2021/06/07 11:18:57;;;;;;;2.25;1.95;;;22.50;99.90;;;;;;5033814;28;20217;-79
2021/06/07 11:21:27;;;;;;;1.65;1.55;;;22.60;99.90;;;;;;5053610;28;20230;-81
2021/06/07 11:23:56;;;;;;;3.40;1.95;;;22.60;99.90;;;;;;5052625;28;20684;-81
2021/06/07 11:26:38;;;;;;;3.10;1.67;;;22.60;99.90;;;;;;5052773;28;20259;-81
2021/06/07 11:29:04;;;;;;;8.80;1.75;;;22.70;99.90;;;;;;5034248;28;20269;-80
2021/06/07 11:31:33;;;;;;;5.45;1.50;;;22.60;99.90;;;;;;5034457;28;20273;-81
2021/06/07 11:33:58;;;;;;;2.45;1.75;;;22.60;99.90;;;;;;5034290;28;20518;-82
2021/06/07 11:36:47;;;;;;;2.90;1.80;;;22.70;99.90;;;;;;5052240;28;20175;-82
2021/06/07 11:39:21;;;;;;;2.80;1.80;;;22.70;99.90;;;;;;5022301;28;20605;-81
2021/06/07 11:41:56;;;;;;;1.75;1.65;;;22.70;99.90;;;;;;5052359;28;20220;-84
2021/06/07 11:44:44;;;;;;;1.58;1.27;;;22.80;99.90;;;;;;5052513;28;20167;-81
2021/06/07 11:47:36;;;;;;;5.22;1.77;;;22.90;99.90;;;;;;5054179;28;20178;-80
2021/06/07 11:50:12;;;;;;;3.63;2.20;;;22.80;99.90;;;;;;5046409;28;20205;-80
2021/06/07 11:52:52;;;;;;;1.50;1.40;;;22.60;99.90;;;;;;5057544;28;20634;-80
2021/06/07 11:55:33;;;;;;;5.65;1.77;;;22.60;99.90;;;;;;5055542;28;20331;-88
2021/06/07 11:58:11;;;;;;;6.28;2.00;;;22.40;99.90;;;;;;5051614;28;20190;-81
2021/06/07 12:00:40;;;;;;;3.50;1.67;;;22.50;99.90;;;;;;5051288;28;20213;-81
2021/06/07 12:03:14;;;;;;;6.10;2.00;;;22.50;99.90;;;;;;5051548;28;20172;-80
2021/06/07 12:05:40;;;;;;;2.38;1.80;;;22.70;99.90;;;;;;5053017;28;20281;-83
2021/06/07 12:08:11;;;;;;;2.15;1.40;;;22.80;99.90;;;;;;5034603;28;20167;-81
2021/06/07 12:10:38;;;;;;;11.27;1.80;;;22.90;99.90;;;;;;5055212;28;20187;-81
2021/06/07 12:13:19;;;;;;;3.97;1.80;;;23.20;99.90;;;;;;5056418;28;20646;-81
2021/06/07 12:15:49;;;;;;;3.00;1.60;;;23.00;99.90;;;;;;5055273;28;20167;-81
2021/06/07 12:18:32;;;;;;;5.45;1.75;;;23.10;99.90;;;;;;5055142;28;20206;-80
2021/06/07 12:21:06;;;;;;;3.55;1.70;;;23.10;99.90;;;;;;5055828;28;20199;-81
2021/06/07 12:23:35;;;;;;;5.20;1.40;;;23.20;99.90;;;;;;5055436;28;20167;-80
2021/06/07 12:29:32;;;;;;;5.72;1.63;;;23.00;99.90;;;;;;5054587;28;20190;-81
2021/06/07 12:32:06;;;;;;;2.75;1.58;;;23.00;99.90;;;;;;5055053;28;20274;-82
2021/06/07 12:34:32;;;;;;;4.93;1.60;;;23.00;99.90;;;;;;5055865;28;20199;-82
2021/06/07 12:36:58;;;;;;;6.82;1.98;;;23.10;99.90;;;;;;5062245;28;20198;-79
2021/06/07 12:39:24;;;;;;;2.25;1.77;;;23.00;99.90;;;;;;5074836;28;20195;-77
2021/06/07 12:41:50;;;;;;;2.33;1.45;;;23.00;99.90;;;;;;5075346;28;20162;-85
2021/06/07 12:44:26;;;;;;;4.68;2.50;;;22.90;99.90;;;;;;5058258;28;20266;-82
2021/06/07 12:46:55;;;;;;;1.58;1.48;;;23.00;99.90;;;;;;5075507;28;20166;-84
2021/06/07 12:49:31;;;;;;;1.77;1.50;;;22.90;99.90;;;;;;5075721;28;20659;-82
2021/06/07 12:52:02;;;;;;;2.88;1.73;;;23.00;99.90;;;;;;5075610;28;20245;-84
2021/06/07 12:54:30;;;;;;;4.30;2.15;;;23.00;99.90;;;;;;5075846;28;20151;-80
2021/06/07 12:56:57;;;;;;;2.58;1.60;;;23.10;99.90;;;;;;5075647;28;20198;-79
2021/06/07 12:59:31;;;;;;;4.18;1.95;;;23.30;99.90;;;;;;5075111;28;20158;-83